Parana, Brazil
Current Conditions -  °F | °C
As of 6:00 AM on Saturday 29 Nov 2014 (Local Time) from SBJU Reporting Station
Few Clouds Few Clouds  
Wind Chill: 79°   Ceiling: Unl
Heat Index: 81°   Visibility: 6mi
Dew Point: 68°   Wind: 0mph
Humidity: 69%   Direction: NA
Pressure: 30"   Gusts: NA
Location:  6.49°S, 38.31°W
Report Text: SBJU 290900Z 00000KT 9999 FEW020 26/20 Q1016
Loading
Personal Weather Stations






























Interactive Weather Map New forecast layout! Learn more

10-Day Weather Forecast

Advertisements
Track Severe Weather on mobile